createdAt,value
2018-03-24T00:00:20.008Z,992.01
2018-03-24T00:01:19.980Z,992.05
2018-03-24T00:02:19.949Z,992.05
2018-03-24T00:03:19.921Z,992.05
2018-03-24T00:04:19.891Z,992.03
2018-03-24T00:05:19.864Z,992.04
2018-03-24T00:06:19.834Z,992.04
2018-03-24T00:07:19.806Z,992.07
2018-03-24T00:08:19.797Z,992.06
2018-03-24T00:09:19.748Z,992.03
2018-03-24T00:10:19.719Z,992.02
2018-03-24T00:11:19.689Z,992.07
2018-03-24T00:12:19.660Z,991.99
2018-03-24T00:13:19.631Z,992.03
2018-03-24T00:14:19.602Z,992
2018-03-24T00:15:19.574Z,992
2018-03-24T00:16:19.548Z,992.02
2018-03-24T00:17:19.516Z,991.97
2018-03-24T00:18:19.487Z,991.98
2018-03-24T00:19:19.457Z,991.99
2018-03-24T00:20:19.428Z,991.99
2018-03-24T00:21:19.402Z,991.96
2018-03-24T00:22:19.370Z,991.99
2018-03-24T00:23:19.342Z,991.95
2018-03-24T00:24:19.311Z,991.98
2018-03-24T00:25:19.282Z,991.98
2018-03-24T00:26:19.254Z,991.97
2018-03-24T00:27:19.226Z,991.98
2018-03-24T00:28:19.195Z,991.98
2018-03-24T00:29:19.165Z,991.99
2018-03-24T00:30:19.136Z,991.97
2018-03-24T00:31:19.107Z,991.95
2018-03-24T00:32:19.080Z,991.93
2018-03-24T00:33:19.048Z,991.91
2018-03-24T00:34:19.019Z,991.94
2018-03-24T00:35:18.988Z,991.92
2018-03-24T00:36:18.960Z,991.91
2018-03-24T00:37:18.930Z,991.91
2018-03-24T00:38:18.900Z,991.9
2018-03-24T00:39:18.871Z,991.87
2018-03-24T00:40:18.842Z,991.89
2018-03-24T00:41:18.813Z,991.89
2018-03-24T00:42:18.782Z,991.88
2018-03-24T00:43:18.755Z,991.86
2018-03-24T00:44:18.723Z,991.86
2018-03-24T00:45:18.695Z,991.83
2018-03-24T00:46:18.665Z,991.82
2018-03-24T00:47:18.635Z,991.84
2018-03-24T00:48:18.604Z,991.84
2018-03-24T00:49:18.577Z,991.83
2018-03-24T00:50:18.546Z,991.81
2018-03-24T00:51:18.517Z,991.83
2018-03-24T00:52:18.488Z,991.86
2018-03-24T00:53:18.457Z,991.86
2018-03-24T00:54:18.428Z,991.86
2018-03-24T00:55:18.397Z,991.86
2018-03-24T00:56:18.369Z,991.82
2018-03-24T00:57:18.338Z,991.81
2018-03-24T00:58:18.309Z,991.8
2018-03-24T00:59:18.281Z,991.78
2018-03-24T01:00:18.250Z,991.8
2018-03-24T01:01:18.219Z,991.81
2018-03-24T01:02:18.190Z,991.82
2018-03-24T01:03:18.159Z,991.83
2018-03-24T01:04:18.130Z,991.85
2018-03-24T01:05:18.100Z,991.84
2018-03-24T01:06:18.071Z,991.87
2018-03-24T01:07:18.044Z,991.83
2018-03-24T01:08:18.011Z,991.83
2018-03-24T01:09:17.980Z,991.81
2018-03-24T01:10:17.962Z,991.82
2018-03-24T01:11:17.921Z,991.82
2018-03-24T01:12:17.987Z,991.81
2018-03-24T01:13:17.862Z,991.8
2018-03-24T01:14:17.837Z,991.8
2018-03-24T01:15:17.802Z,991.77
2018-03-24T01:16:17.772Z,991.76
2018-03-24T01:17:17.741Z,991.78
2018-03-24T01:18:17.713Z,991.8
2018-03-24T01:19:17.681Z,991.75
2018-03-24T01:20:17.652Z,991.76
2018-03-24T01:21:17.627Z,991.79
2018-03-24T01:22:17.592Z,991.74
2018-03-24T01:23:17.562Z,991.75
2018-03-24T01:24:17.632Z,991.71
2018-03-24T01:25:17.502Z,991.7
2018-03-24T01:26:17.472Z,991.65
2018-03-24T01:27:17.442Z,991.66
2018-03-24T01:28:17.411Z,991.63
2018-03-24T01:29:17.383Z,991.66
2018-03-24T01:30:17.351Z,991.63
2018-03-24T01:31:17.324Z,991.66
2018-03-24T01:32:17.291Z,991.65
2018-03-24T01:33:17.262Z,991.65
2018-03-24T01:34:17.231Z,991.63
2018-03-24T01:35:17.200Z,991.65
2018-03-24T01:36:17.177Z,991.6
2018-03-24T01:37:17.140Z,991.63
2018-03-24T01:38:17.111Z,991.63
2018-03-24T01:39:17.081Z,991.65
2018-03-24T01:40:17.050Z,991.67
2018-03-24T01:41:17.021Z,991.71
2018-03-24T01:42:16.991Z,991.68
2018-03-24T01:43:16.961Z,991.67
2018-03-24T01:44:16.929Z,991.67
2018-03-24T01:45:16.900Z,991.68
2018-03-24T01:46:16.870Z,991.69
2018-03-24T01:47:16.841Z,991.67
2018-03-24T01:48:16.810Z,991.69
2018-03-24T01:49:16.778Z,991.68
2018-03-24T01:50:16.749Z,991.64
2018-03-24T01:51:16.720Z,991.66
2018-03-24T01:52:16.690Z,991.7
2018-03-24T01:53:16.660Z,991.7
2018-03-24T01:54:16.629Z,991.69
2018-03-24T01:55:16.599Z,991.68
2018-03-24T01:56:16.568Z,991.72
2018-03-24T01:57:16.539Z,991.71
2018-03-24T01:58:16.509Z,991.71
2018-03-24T01:59:16.481Z,991.73
2018-03-24T02:00:16.451Z,991.7
2018-03-24T02:01:16.420Z,991.69
2018-03-24T02:02:16.392Z,991.68
2018-03-24T02:03:16.366Z,991.7
2018-03-24T02:04:16.387Z,991.72
2018-03-24T02:05:16.297Z,991.71
2018-03-24T02:06:16.266Z,991.69
2018-03-24T02:07:16.237Z,991.72
2018-03-24T02:08:16.207Z,991.71
2018-03-24T02:09:16.176Z,991.7
2018-03-24T02:10:16.145Z,991.7
2018-03-24T02:11:16.115Z,991.7
2018-03-24T02:12:16.086Z,991.71
2018-03-24T02:13:16.054Z,991.73
2018-03-24T02:14:16.025Z,991.75
2018-03-24T02:15:15.993Z,991.73
2018-03-24T02:16:15.966Z,991.71
2018-03-24T02:17:15.933Z,991.68
2018-03-24T02:18:15.901Z,991.68
2018-03-24T02:19:15.873Z,991.67
2018-03-24T02:20:15.842Z,991.64
2018-03-24T02:21:15.811Z,991.66
2018-03-24T02:22:15.781Z,991.63
2018-03-24T02:23:15.753Z,991.65
2018-03-24T02:24:15.719Z,991.63
2018-03-24T02:25:15.688Z,991.63
2018-03-24T02:26:15.659Z,991.6
2018-03-24T02:27:15.629Z,991.63
2018-03-24T02:28:15.597Z,991.6
2018-03-24T02:29:15.568Z,991.62
2018-03-24T02:30:15.539Z,991.6
2018-03-24T02:31:15.508Z,991.58
2018-03-24T02:32:15.475Z,991.59
2018-03-24T02:33:15.448Z,991.59
2018-03-24T02:34:15.415Z,991.58
2018-03-24T02:35:15.385Z,991.6
2018-03-24T02:36:15.354Z,991.6
2018-03-24T02:37:15.322Z,991.63
2018-03-24T02:38:15.293Z,991.63
2018-03-24T02:39:15.261Z,991.66
2018-03-24T02:40:15.236Z,991.66
2018-03-24T02:41:15.200Z,991.68
2018-03-24T02:42:15.173Z,991.67
2018-03-24T02:43:15.139Z,991.7
2018-03-24T02:44:15.108Z,991.64
2018-03-24T02:45:15.077Z,991.67
2018-03-24T02:46:15.061Z,991.69
2018-03-24T02:47:15.031Z,991.66
2018-03-24T02:48:14.985Z,991.65
2018-03-24T02:49:14.955Z,991.68
2018-03-24T02:50:14.923Z,991.64
2018-03-24T02:51:14.893Z,991.64
2018-03-24T02:52:14.867Z,991.66
2018-03-24T02:53:14.833Z,991.63
2018-03-24T02:54:14.802Z,991.65
2018-03-24T02:55:14.770Z,991.61
2018-03-24T02:56:14.749Z,991.62
2018-03-24T02:57:14.709Z,991.61
2018-03-24T02:58:14.677Z,991.63
2018-03-24T02:59:14.647Z,991.61
2018-03-24T03:00:14.617Z,991.6
2018-03-24T03:01:14.591Z,991.61
2018-03-24T03:02:14.554Z,991.6
2018-03-24T03:03:14.528Z,991.61
2018-03-24T03:04:14.492Z,991.61
2018-03-24T03:05:14.461Z,991.58
2018-03-24T03:06:14.431Z,991.6
2018-03-24T03:07:14.401Z,991.61
2018-03-24T03:08:14.367Z,991.61
2018-03-24T03:09:14.338Z,991.55
2018-03-24T03:10:14.307Z,991.62
2018-03-24T03:11:14.277Z,991.58
2018-03-24T03:12:14.250Z,991.62
2018-03-24T03:13:14.228Z,991.63
2018-03-24T03:14:14.249Z,991.63
2018-03-24T03:15:14.153Z,991.65
2018-03-24T03:16:14.121Z,991.61
2018-03-24T03:17:14.091Z,991.68
2018-03-24T03:18:14.059Z,991.62
2018-03-24T03:19:14.028Z,991.6
2018-03-24T03:20:13.997Z,991.59
2018-03-24T03:21:13.967Z,991.64
2018-03-24T03:22:13.936Z,991.6
2018-03-24T03:23:13.903Z,991.63
2018-03-24T03:24:13.873Z,991.62
2018-03-24T03:25:13.843Z,991.62
2018-03-24T03:26:13.812Z,991.64
2018-03-24T03:27:13.781Z,991.67
2018-03-24T03:28:13.750Z,991.67
2018-03-24T03:29:13.722Z,991.64
2018-03-24T03:30:13.688Z,991.67
2018-03-24T03:31:13.658Z,991.7
2018-03-24T03:32:13.626Z,991.68
2018-03-24T03:33:13.595Z,991.65
2018-03-24T03:34:13.563Z,991.67
2018-03-24T03:35:13.533Z,991.63
2018-03-24T03:36:13.501Z,991.66
2018-03-24T03:37:13.542Z,991.65
2018-03-24T03:38:13.439Z,991.69
2018-03-24T03:39:13.408Z,991.68
2018-03-24T03:40:13.377Z,991.67
2018-03-24T03:41:13.344Z,991.66
2018-03-24T03:42:13.314Z,991.67
2018-03-24T03:43:13.284Z,991.68
2018-03-24T03:44:13.253Z,991.64
2018-03-24T03:45:13.220Z,991.66
2018-03-24T03:46:13.195Z,991.7
2018-03-24T03:47:13.258Z,991.65
2018-03-24T03:48:13.131Z,991.67
2018-03-24T03:49:13.095Z,991.71
2018-03-24T03:50:13.064Z,991.73
2018-03-24T03:51:13.034Z,991.66
2018-03-24T03:52:13.000Z,991.68
2018-03-24T03:53:12.972Z,991.65
2018-03-24T03:54:12.939Z,991.67
2018-03-24T03:55:12.909Z,991.7
2018-03-24T03:56:12.877Z,991.68
2018-03-24T03:57:12.845Z,991.68
2018-03-24T03:58:12.814Z,991.66
2018-03-24T03:59:12.783Z,991.68
2018-03-24T04:00:12.752Z,991.65
2018-03-24T04:01:12.721Z,991.68
2018-03-24T04:02:12.690Z,991.66
2018-03-24T04:03:12.663Z,991.72
2018-03-24T04:04:12.632Z,991.64
2018-03-24T04:05:12.596Z,991.7
2018-03-24T04:06:12.564Z,991.67
2018-03-24T04:07:12.531Z,991.64
2018-03-24T04:08:12.501Z,991.63
2018-03-24T04:09:12.469Z,991.64
2018-03-24T04:10:12.438Z,991.63
2018-03-24T04:11:12.406Z,991.62
2018-03-24T04:12:12.376Z,991.64
2018-03-24T04:13:12.345Z,991.59
2018-03-24T04:14:12.313Z,991.61
2018-03-24T04:15:12.280Z,991.6
2018-03-24T04:16:12.250Z,991.64
2018-03-24T04:17:12.218Z,991.64
2018-03-24T04:18:12.188Z,991.64
2018-03-24T04:19:12.157Z,991.67
2018-03-24T04:20:12.123Z,991.68
2018-03-24T04:21:12.092Z,991.67
2018-03-24T04:22:12.062Z,991.7
2018-03-24T04:23:12.029Z,991.71
2018-03-24T04:24:11.998Z,991.71
2018-03-24T04:25:11.966Z,991.69
2018-03-24T04:26:11.935Z,991.68
2018-03-24T04:27:11.903Z,991.74
2018-03-24T04:28:11.873Z,991.7
2018-03-24T04:29:11.845Z,991.71
2018-03-24T04:30:11.809Z,991.69
2018-03-24T04:31:11.778Z,991.64
2018-03-24T04:32:11.746Z,991.67
2018-03-24T04:33:11.715Z,991.71
2018-03-24T04:34:11.685Z,991.71
2018-03-24T04:35:11.652Z,991.74
2018-03-24T04:36:11.623Z,991.74
2018-03-24T04:37:11.589Z,991.73
2018-03-24T04:38:11.558Z,991.7
2018-03-24T04:39:11.525Z,991.74
2018-03-24T04:40:11.495Z,991.71
2018-03-24T04:41:11.463Z,991.74
2018-03-24T04:42:11.431Z,991.75
2018-03-24T04:43:11.420Z,991.75
2018-03-24T04:44:11.366Z,991.76
2018-03-24T04:45:11.337Z,991.75
2018-03-24T04:46:11.304Z,991.73
2018-03-24T04:47:11.273Z,991.75
2018-03-24T04:48:11.242Z,991.69
2018-03-24T04:49:11.211Z,991.73
2018-03-24T04:50:11.179Z,991.73
2018-03-24T04:51:11.146Z,991.69
2018-03-24T04:52:11.115Z,991.67
2018-03-24T04:53:11.085Z,991.72
2018-03-24T04:54:11.053Z,991.74
2018-03-24T04:55:11.021Z,991.67
2018-03-24T04:56:10.989Z,991.7
2018-03-24T04:57:10.957Z,991.69
2018-03-24T04:58:10.926Z,991.73
2018-03-24T04:59:10.895Z,991.73
2018-03-24T05:00:10.863Z,991.74
2018-03-24T05:01:10.832Z,991.79
2018-03-24T05:02:10.800Z,991.76
2018-03-24T05:03:10.770Z,991.75
2018-03-24T05:04:10.739Z,991.76
2018-03-24T05:05:10.706Z,991.76
2018-03-24T05:06:10.679Z,991.75
2018-03-24T05:07:10.643Z,991.77
2018-03-24T05:08:10.610Z,991.75
2018-03-24T05:09:10.612Z,991.75
2018-03-24T05:10:10.547Z,991.72
2018-03-24T05:11:10.517Z,991.74
2018-03-24T05:12:10.484Z,991.74
2018-03-24T05:13:10.452Z,991.75
2018-03-24T05:14:10.425Z,991.75
2018-03-24T05:15:10.390Z,991.75
2018-03-24T05:16:10.358Z,991.71
2018-03-24T05:17:10.332Z,991.72
2018-03-24T05:18:10.295Z,991.74
2018-03-24T05:19:10.264Z,991.72
2018-03-24T05:20:10.232Z,991.71
2018-03-24T05:21:10.200Z,991.76
2018-03-24T05:22:10.169Z,991.72
2018-03-24T05:23:10.139Z,991.7
2018-03-24T05:24:10.109Z,991.73
2018-03-24T05:25:10.074Z,991.72
2018-03-24T05:26:10.065Z,991.7
2018-03-24T05:27:10.011Z,991.73
2018-03-24T05:28:09.981Z,991.73
2018-03-24T05:29:09.948Z,991.71
2018-03-24T05:30:09.917Z,991.72
2018-03-24T05:31:09.884Z,991.74
2018-03-24T05:32:09.854Z,991.77
2018-03-24T05:33:09.823Z,991.79
2018-03-24T05:34:09.793Z,991.77
2018-03-24T05:35:09.758Z,991.77
2018-03-24T05:36:09.728Z,991.82
2018-03-24T05:37:09.699Z,991.8
2018-03-24T05:38:09.666Z,991.78
2018-03-24T05:39:09.734Z,991.8
2018-03-24T05:40:09.604Z,991.77
2018-03-24T05:41:09.572Z,991.79
2018-03-24T05:42:09.540Z,991.77
2018-03-24T05:43:09.509Z,991.74
2018-03-24T05:44:09.478Z,991.75
2018-03-24T05:45:09.445Z,991.8
2018-03-24T05:46:09.416Z,991.77
2018-03-24T05:47:09.386Z,991.73
2018-03-24T05:48:09.359Z,991.74
2018-03-24T05:49:09.327Z,991.75
2018-03-24T05:50:09.291Z,991.75
2018-03-24T05:51:09.261Z,991.8
2018-03-24T05:52:09.230Z,991.79
2018-03-24T05:53:09.200Z,991.79
2018-03-24T05:54:09.167Z,991.8
2018-03-24T05:55:09.137Z,991.81
2018-03-24T05:56:09.109Z,991.82
2018-03-24T05:57:09.074Z,991.8
2018-03-24T05:58:09.043Z,991.83
2018-03-24T05:59:09.012Z,991.8
2018-03-24T06:00:08.981Z,991.82
2018-03-24T06:01:08.950Z,991.83
2018-03-24T06:02:08.919Z,991.85
2018-03-24T06:03:08.895Z,991.86
2018-03-24T06:04:08.858Z,991.85
2018-03-24T06:05:08.827Z,991.9
2018-03-24T06:06:08.796Z,991.9
2018-03-24T06:07:08.765Z,991.94
2018-03-24T06:08:08.735Z,991.9
2018-03-24T06:09:08.702Z,991.88
2018-03-24T06:10:08.673Z,991.97
2018-03-24T06:11:08.643Z,991.97
2018-03-24T06:12:08.611Z,991.97
2018-03-24T06:13:08.586Z,991.97
2018-03-24T06:14:08.556Z,991.94
2018-03-24T06:15:08.520Z,991.96
2018-03-24T06:16:08.496Z,991.94
2018-03-24T06:17:08.460Z,991.95
2018-03-24T06:18:08.428Z,991.95
2018-03-24T06:19:08.399Z,991.97
2018-03-24T06:20:08.367Z,992.02
2018-03-24T06:21:08.339Z,992
2018-03-24T06:22:08.309Z,992.03
2018-03-24T06:23:08.278Z,992.03
2018-03-24T06:24:08.248Z,991.99
2018-03-24T06:25:08.218Z,992.02
2018-03-24T06:26:08.186Z,991.97
2018-03-24T06:27:08.158Z,992.02
2018-03-24T06:28:08.130Z,992
2018-03-24T06:29:08.098Z,992.02
2018-03-24T06:30:08.067Z,991.98
2018-03-24T06:31:08.038Z,992
2018-03-24T06:32:08.009Z,991.98
2018-03-24T06:33:07.979Z,991.98
2018-03-24T06:34:07.949Z,991.98
2018-03-24T06:35:07.920Z,991.97
2018-03-24T06:36:07.910Z,992
2018-03-24T06:37:07.861Z,992
2018-03-24T06:38:07.880Z,991.97
2018-03-24T06:39:07.803Z,992.02
2018-03-24T06:40:07.774Z,992.03
2018-03-24T06:41:07.744Z,992.01
2018-03-24T06:42:07.715Z,992
2018-03-24T06:43:07.687Z,992.02
2018-03-24T06:44:07.657Z,991.97
2018-03-24T06:45:07.629Z,992
2018-03-24T06:46:07.601Z,991.97
2018-03-24T06:47:07.572Z,991.96
2018-03-24T06:48:07.543Z,992
2018-03-24T06:49:07.515Z,992.01
2018-03-24T06:50:07.489Z,992
2018-03-24T06:51:07.457Z,991.96
2018-03-24T06:52:07.432Z,991.99
2018-03-24T06:53:07.401Z,992
2018-03-24T06:54:07.374Z,992.03
2018-03-24T06:55:07.345Z,992.04
2018-03-24T06:56:07.316Z,991.99
2018-03-24T06:57:07.288Z,991.98
2018-03-24T06:58:07.260Z,991.94
2018-03-24T06:59:07.233Z,991.96
2018-03-24T07:00:07.205Z,991.98
2018-03-24T07:01:07.177Z,991.97
2018-03-24T07:02:07.148Z,991.96
2018-03-24T07:03:07.119Z,991.98
2018-03-24T07:04:07.094Z,991.98
2018-03-24T07:05:07.066Z,991.99
2018-03-24T07:06:07.037Z,991.99
2018-03-24T07:07:07.009Z,992.03
2018-03-24T07:08:06.983Z,991.98
2018-03-24T07:09:06.953Z,992.02
2018-03-24T07:10:06.925Z,992.03
2018-03-24T07:11:06.898Z,992.05
2018-03-24T07:12:06.871Z,992.05
2018-03-24T07:13:06.843Z,992.06
2018-03-24T07:14:06.814Z,992.07
2018-03-24T07:15:06.787Z,992.07
2018-03-24T07:16:06.761Z,992.06
2018-03-24T07:17:06.732Z,992.15
2018-03-24T07:18:06.703Z,992.1
2018-03-24T07:19:06.675Z,992.13
2018-03-24T07:20:06.648Z,992.14
2018-03-24T07:21:06.624Z,992.15
2018-03-24T07:22:06.593Z,992.14
2018-03-24T07:23:06.566Z,992.15
2018-03-24T07:24:06.536Z,992.18
2018-03-24T07:25:06.515Z,992.11
2018-03-24T07:26:06.481Z,992.16
2018-03-24T07:27:06.452Z,992.17
2018-03-24T07:28:06.425Z,992.18
2018-03-24T07:29:06.396Z,992.15
2018-03-24T07:30:06.370Z,992.17
2018-03-24T07:31:06.345Z,992.17
2018-03-24T07:32:06.313Z,992.16
2018-03-24T07:33:06.285Z,992.14
2018-03-24T07:34:06.259Z,992.16
2018-03-24T07:35:06.230Z,992.16
2018-03-24T07:36:06.212Z,992.18
2018-03-24T07:37:06.177Z,992.21
2018-03-24T07:38:06.147Z,992.2
2018-03-24T07:39:06.118Z,992.19
2018-03-24T07:40:06.092Z,992.2
2018-03-24T07:41:06.065Z,992.17
2018-03-24T07:42:06.035Z,992.2
2018-03-24T07:43:06.007Z,992.19
2018-03-24T07:44:05.980Z,992.17
2018-03-24T07:45:05.952Z,992.23
2018-03-24T07:46:05.925Z,992.22
2018-03-24T07:47:05.898Z,992.25
2018-03-24T07:48:05.870Z,992.28
2018-03-24T07:49:05.843Z,992.26
2018-03-24T07:50:05.814Z,992.31
2018-03-24T07:51:05.838Z,992.28
2018-03-24T07:52:05.760Z,992.27
2018-03-24T07:53:05.732Z,992.3
2018-03-24T07:54:05.704Z,992.27
2018-03-24T07:55:05.678Z,992.27
2018-03-24T07:56:05.756Z,992.24
2018-03-24T07:57:05.623Z,992.23
2018-03-24T07:58:05.597Z,992.25
2018-03-24T07:59:05.568Z,992.22
2018-03-24T08:00:05.544Z,992.23
2018-03-24T08:01:05.513Z,992.25
2018-03-24T08:02:05.485Z,992.26
2018-03-24T08:03:05.459Z,992.26
2018-03-24T08:04:05.432Z,992.3
2018-03-24T08:05:05.403Z,992.28
2018-03-24T08:06:05.377Z,992.3
2018-03-24T08:07:05.349Z,992.34
2018-03-24T08:08:05.321Z,992.34
2018-03-24T08:09:05.298Z,992.32
2018-03-24T08:10:05.268Z,992.34
2018-03-24T08:11:05.753Z,992.36
2018-03-24T08:12:05.405Z,992.36
2018-03-24T08:13:05.189Z,992.37
2018-03-24T08:14:05.359Z,992.36
2018-03-24T08:15:05.132Z,992.37
2018-03-24T08:16:05.110Z,992.37
2018-03-24T08:17:05.079Z,992.38
2018-03-24T08:18:05.055Z,992.39
2018-03-24T08:19:05.025Z,992.39
2018-03-24T08:20:05.001Z,992.41
2018-03-24T08:21:04.972Z,992.38
2018-03-24T08:22:04.944Z,992.4
2018-03-24T08:23:04.917Z,992.37
2018-03-24T08:24:04.891Z,992.39
2018-03-24T08:25:04.865Z,992.39
2018-03-24T08:26:04.836Z,992.41
2018-03-24T08:27:04.970Z,992.4
2018-03-24T08:28:04.784Z,992.44
2018-03-24T08:29:04.756Z,992.4
2018-03-24T08:30:04.730Z,992.42
2018-03-24T08:31:04.704Z,992.41
2018-03-24T08:32:04.677Z,992.45
2018-03-24T08:33:04.650Z,992.39
2018-03-24T08:34:04.625Z,992.42
2018-03-24T08:35:04.599Z,992.42
2018-03-24T08:36:04.573Z,992.41
2018-03-24T08:37:04.546Z,992.38
2018-03-24T08:38:04.519Z,992.41
2018-03-24T08:39:04.494Z,992.4
2018-03-24T08:40:04.468Z,992.43
2018-03-24T08:41:04.441Z,992.42
2018-03-24T08:42:04.416Z,992.44
2018-03-24T08:43:04.390Z,992.4
2018-03-24T08:44:04.363Z,992.42
2018-03-24T08:45:04.338Z,992.43
2018-03-24T08:46:04.311Z,992.42
2018-03-24T08:47:04.386Z,992.46
2018-03-24T08:48:04.259Z,992.48
2018-03-24T08:49:04.234Z,992.45
2018-03-24T08:50:04.268Z,992.49
2018-03-24T08:51:04.183Z,992.48
2018-03-24T08:52:04.155Z,992.53
2018-03-24T08:53:04.131Z,992.53
2018-03-24T08:54:04.105Z,992.49
2018-03-24T08:55:04.329Z,992.5
2018-03-24T08:56:04.054Z,992.51
2018-03-24T08:57:04.027Z,992.53
2018-03-24T08:58:04.002Z,992.52
2018-03-24T08:59:03.976Z,992.51
2018-03-24T09:00:03.952Z,992.54
2018-03-24T09:01:03.926Z,992.57
2018-03-24T09:02:03.900Z,992.58
2018-03-24T09:03:03.874Z,992.55
2018-03-24T09:04:03.855Z,992.54
2018-03-24T09:05:03.831Z,992.59
2018-03-24T09:06:03.799Z,992.56
2018-03-24T09:07:03.774Z,992.55
2018-03-24T09:08:03.750Z,992.58
2018-03-24T09:09:03.727Z,992.56
2018-03-24T09:10:03.697Z,992.59
2018-03-24T09:11:03.673Z,992.57
2018-03-24T09:12:03.649Z,992.58
2018-03-24T09:13:03.624Z,992.57
2018-03-24T09:14:03.599Z,992.57
2018-03-24T09:15:03.642Z,992.61
2018-03-24T09:16:03.550Z,992.57
2018-03-24T09:17:03.526Z,992.59
2018-03-24T09:18:03.500Z,992.58
2018-03-24T09:19:03.475Z,992.6
2018-03-24T09:20:03.450Z,992.61
2018-03-24T09:21:03.426Z,992.61
2018-03-24T09:22:03.401Z,992.61
2018-03-24T09:23:03.380Z,992.62
2018-03-24T09:24:03.352Z,992.58
2018-03-24T09:25:03.326Z,992.6
2018-03-24T09:26:03.303Z,992.58
2018-03-24T09:27:03.310Z,992.61
2018-03-24T09:28:03.280Z,992.6
2018-03-24T09:29:03.229Z,992.62
2018-03-24T09:30:03.205Z,992.6
2018-03-24T09:31:03.181Z,992.6
2018-03-24T09:32:03.156Z,992.58
2018-03-24T09:33:03.131Z,992.63
2018-03-24T09:34:03.108Z,992.63
2018-03-24T09:35:03.166Z,992.63
2018-03-24T09:36:03.060Z,992.61
2018-03-24T09:37:03.037Z,992.55
2018-03-24T09:38:03.012Z,992.56
2018-03-24T09:39:02.987Z,992.55
2018-03-24T09:40:02.963Z,992.54
2018-03-24T09:41:02.940Z,992.55
2018-03-24T09:42:02.916Z,992.48
2018-03-24T09:43:02.890Z,992.49
2018-03-24T09:44:02.873Z,992.54
2018-03-24T09:45:02.848Z,992.61
2018-03-24T09:46:02.820Z,992.54
2018-03-24T09:47:02.796Z,992.53
2018-03-24T09:48:02.774Z,992.54
2018-03-24T09:49:02.751Z,992.52
2018-03-24T09:50:02.726Z,992.51
2018-03-24T09:51:02.735Z,992.5
2018-03-24T09:52:02.679Z,992.57
2018-03-24T09:53:02.656Z,992.55
2018-03-24T09:54:02.633Z,992.47
2018-03-24T09:55:02.610Z,992.46
2018-03-24T09:56:02.587Z,992.5
2018-03-24T09:57:02.564Z,992.47
2018-03-24T09:58:02.540Z,992.48
2018-03-24T09:59:02.516Z,992.42
2018-03-24T10:00:02.493Z,992.45
2018-03-24T10:01:02.473Z,992.45
2018-03-24T10:02:02.447Z,992.44
2018-03-24T10:03:02.426Z,992.44
2018-03-24T10:04:02.404Z,992.47
2018-03-24T10:05:02.381Z,992.45
2018-03-24T10:06:02.359Z,992.4
2018-03-24T10:07:02.336Z,992.37
2018-03-24T10:08:02.313Z,992.36
2018-03-24T10:09:02.294Z,992.38
2018-03-24T10:10:02.276Z,992.28
2018-03-24T10:11:02.294Z,992.31
2018-03-24T10:12:02.224Z,992.31
2018-03-24T10:13:02.207Z,992.3
2018-03-24T10:14:02.182Z,992.34
2018-03-24T10:15:02.162Z,992.31
2018-03-24T10:16:02.138Z,992.35
2018-03-24T10:17:02.157Z,992.33
2018-03-24T10:18:02.114Z,992.37
2018-03-24T10:19:02.079Z,992.39
2018-03-24T10:20:02.051Z,992.38
2018-03-24T10:21:02.030Z,992.32
2018-03-24T10:22:02.011Z,992.34
2018-03-24T10:23:01.984Z,992.33
2018-03-24T10:24:01.965Z,992.3
2018-03-24T10:25:01.942Z,992.28
2018-03-24T10:26:01.926Z,992.34
2018-03-24T10:27:01.900Z,992.3
2018-03-24T10:28:01.879Z,992.26
2018-03-24T10:29:01.858Z,992.22
2018-03-24T10:30:01.836Z,992.2
2018-03-24T10:31:01.813Z,992.24
2018-03-24T10:32:01.794Z,992.2
2018-03-24T10:33:01.775Z,992.23
2018-03-24T10:34:01.751Z,992.16
2018-03-24T10:35:01.733Z,992.16
2018-03-24T10:36:01.706Z,992.2
2018-03-24T10:37:01.686Z,992.18
2018-03-24T10:38:01.664Z,992.17
2018-03-24T10:39:01.643Z,992.21
2018-03-24T10:40:01.623Z,992.21
2018-03-24T10:41:01.599Z,992.23
2018-03-24T10:42:01.577Z,992.22
2018-03-24T10:43:01.557Z,992.25
2018-03-24T10:44:01.536Z,992.23
2018-03-24T10:45:01.515Z,992.28
2018-03-24T10:46:01.492Z,992.27
2018-03-24T10:47:01.473Z,992.26
2018-03-24T10:48:01.451Z,992.22
2018-03-24T10:49:01.431Z,992.23
2018-03-24T10:50:01.413Z,992.16
2018-03-24T10:51:01.388Z,992.23
2018-03-24T10:52:01.387Z,992.24
2018-03-24T10:53:01.349Z,992.21
2018-03-24T10:54:01.325Z,992.17
2018-03-24T10:55:01.302Z,992.18
2018-03-24T10:56:01.282Z,992.13
2018-03-24T10:57:01.260Z,992.16
2018-03-24T10:58:01.267Z,992.17
2018-03-24T10:59:01.219Z,992.17
2018-03-24T11:00:01.197Z,992.16
2018-03-24T11:01:01.182Z,992.2
2018-03-24T11:02:01.158Z,992.2
2018-03-24T11:03:01.134Z,992.18
2018-03-24T11:04:01.117Z,992.13
2018-03-24T11:05:01.094Z,992.16
2018-03-24T11:06:01.075Z,992.12
2018-03-24T11:07:01.053Z,992.12
2018-03-24T11:08:01.033Z,992.11
2018-03-24T11:09:01.016Z,992.15
2018-03-24T11:10:00.993Z,992.11
2018-03-24T11:11:00.972Z,992.11
2018-03-24T11:12:00.952Z,992.11
2018-03-24T11:13:00.933Z,992.1
2018-03-24T11:14:00.910Z,992.09
2018-03-24T11:15:00.891Z,992.1
2018-03-24T11:16:00.872Z,992.07
2018-03-24T11:17:00.851Z,992.03
2018-03-24T11:18:00.831Z,992.03
2018-03-24T11:19:00.814Z,992.1
2018-03-24T11:20:00.792Z,992.06
2018-03-24T11:21:00.771Z,991.99
2018-03-24T11:22:00.753Z,992.01
2018-03-24T11:23:00.732Z,992.02
2018-03-24T11:24:00.714Z,992.02
2018-03-24T11:25:00.693Z,992.03
2018-03-24T11:26:00.679Z,992.03
2018-03-24T11:27:00.654Z,992.01
2018-03-24T11:28:00.635Z,992.02
2018-03-24T11:29:00.615Z,992.01
2018-03-24T11:30:00.602Z,992
2018-03-24T11:31:00.577Z,992.01
2018-03-24T11:32:00.557Z,991.92
2018-03-24T11:33:00.545Z,991.92
2018-03-24T11:34:00.519Z,991.94
2018-03-24T11:35:00.501Z,991.88
2018-03-24T11:36:00.764Z,991.89
2018-03-24T11:37:00.462Z,991.86
2018-03-24T11:38:00.492Z,991.84
2018-03-24T11:39:00.425Z,991.83
2018-03-24T11:40:00.405Z,991.82
2018-03-24T11:41:00.387Z,991.82
2018-03-24T11:42:00.370Z,991.83
2018-03-24T11:43:00.350Z,991.82
2018-03-24T11:44:00.340Z,991.86
2018-03-24T11:45:00.328Z,991.86
2018-03-24T11:46:00.297Z,991.89
2018-03-24T11:47:00.278Z,991.86
2018-03-24T11:48:00.258Z,991.87
2018-03-24T11:49:00.242Z,991.9
2018-03-24T11:50:00.224Z,991.86
2018-03-24T11:51:00.205Z,991.9
2018-03-24T11:52:00.188Z,991.84
2018-03-24T11:53:00.170Z,991.84
2018-03-24T11:54:00.150Z,991.84
2018-03-24T11:55:00.134Z,991.85
2018-03-24T11:56:00.117Z,991.9
2018-03-24T11:57:00.100Z,991.88
2018-03-24T11:58:00.081Z,991.89
2018-03-24T11:59:00.063Z,991.92
2018-03-24T12:00:00.047Z,991.89
2018-03-24T12:01:00.030Z,991.86
2018-03-24T12:02:00.012Z,991.83
2018-03-24T12:02:59.996Z,991.84
2018-03-24T12:03:59.977Z,991.8
2018-03-24T12:04:59.959Z,991.77
2018-03-24T12:05:59.945Z,991.85
2018-03-24T12:06:59.924Z,991.86
2018-03-24T12:07:59.908Z,991.85
2018-03-24T12:08:59.890Z,991.87
2018-03-24T12:09:59.878Z,991.91
2018-03-24T12:10:59.856Z,991.88
2018-03-24T12:11:59.840Z,991.85
2018-03-24T12:12:59.821Z,991.87
2018-03-24T12:13:59.805Z,991.85
2018-03-24T12:14:59.788Z,991.83
2018-03-24T12:15:59.770Z,991.84
2018-03-24T12:16:59.754Z,991.88
2018-03-24T12:17:59.751Z,991.83
2018-03-24T12:18:59.724Z,991.79
2018-03-24T12:19:59.703Z,991.8
2018-03-24T12:20:59.687Z,991.82
2018-03-24T12:21:59.670Z,991.83
2018-03-24T12:22:59.653Z,991.83
2018-03-24T12:23:59.635Z,991.81
2018-03-24T12:24:59.617Z,991.82
2018-03-24T12:25:59.602Z,991.82
2018-03-24T12:26:59.583Z,991.8
2018-03-24T12:27:59.568Z,991.77
2018-03-24T12:28:59.554Z,991.75
2018-03-24T12:29:59.535Z,991.74
2018-03-24T12:30:59.524Z,991.73
2018-03-24T12:31:59.501Z,991.76